sensor_id;sensor_type;location;lat;lon;timestamp;temperature;humidity
12843;DHT22;35724;49.324;-123.118;2023-09-19T00:00:58;23.20;53.80
12843;DHT22;35724;49.324;-123.118;2023-09-19T00:11:05;23.40;53.70
12843;DHT22;35724;49.324;-123.118;2023-09-19T00:21:15;24.00;55.10
12843;DHT22;35724;49.324;-123.118;2023-09-19T00:31:24;24.40;55.20
12843;DHT22;35724;49.324;-123.118;2023-09-19T00:41:33;24.60;55.40
12843;DHT22;35724;49.324;-123.118;2023-09-19T00:51:41;24.90;54.70
12843;DHT22;35724;49.324;-123.118;2023-09-19T01:01:54;25.20;54.70
12843;DHT22;35724;49.324;-123.118;2023-09-19T01:12:04;25.30;54.60
12843;DHT22;35724;49.324;-123.118;2023-09-19T01:22:21;25.30;54.90
12843;DHT22;35724;49.324;-123.118;2023-09-19T01:32:31;25.30;55.70
12843;DHT22;35724;49.324;-123.118;2023-09-19T01:42:42;25.10;56.60
12843;DHT22;35724;49.324;-123.118;2023-09-19T01:52:59;24.70;58.40
12843;DHT22;35724;49.324;-123.118;2023-09-19T02:03:10;24.40;59.20
12843;DHT22;35724;49.324;-123.118;2023-09-19T02:13:21;24.10;59.50
12843;DHT22;35724;49.324;-123.118;2023-09-19T02:23:29;23.80;60.50
12843;DHT22;35724;49.324;-123.118;2023-09-19T02:33:40;23.70;60.70
12843;DHT22;35724;49.324;-123.118;2023-09-19T02:43:47;23.50;61.80
12843;DHT22;35724;49.324;-123.118;2023-09-19T02:53:55;23.60;61.70
12843;DHT22;35724;49.324;-123.118;2023-09-19T03:04:03;23.60;61.60
12843;DHT22;35724;49.324;-123.118;2023-09-19T03:14:13;23.60;61.50
12843;DHT22;35724;49.324;-123.118;2023-09-19T03:24:21;23.60;60.90
12843;DHT22;35724;49.324;-123.118;2023-09-19T03:34:32;23.60;61.00
12843;DHT22;35724;49.324;-123.118;2023-09-19T03:44:39;23.60;60.90
12843;DHT22;35724;49.324;-123.118;2023-09-19T03:54:49;23.70;60.50
12843;DHT22;35724;49.324;-123.118;2023-09-19T04:04:56;23.70;60.00
12843;DHT22;35724;49.324;-123.118;2023-09-19T04:15:05;23.60;59.90
12843;DHT22;35724;49.324;-123.118;2023-09-19T04:25:13;23.40;59.50
12843;DHT22;35724;49.324;-123.118;2023-09-19T04:35:22;23.40;59.30
12843;DHT22;35724;49.324;-123.118;2023-09-19T04:45:30;23.30;59.10
12843;DHT22;35724;49.324;-123.118;2023-09-19T04:55:38;23.30;58.90
12843;DHT22;35724;49.324;-123.118;2023-09-19T05:05:46;23.20;58.70
12843;DHT22;35724;49.324;-123.118;2023-09-19T05:15:55;23.20;58.70
12843;DHT22;35724;49.324;-123.118;2023-09-19T05:26:02;23.40;66.50
12843;DHT22;35724;49.324;-123.118;2023-09-19T05:36:12;23.70;62.40
12843;DHT22;35724;49.324;-123.118;2023-09-19T05:46:22;23.70;61.60
12843;DHT22;35724;49.324;-123.118;2023-09-19T05:56:30;23.80;60.70
12843;DHT22;35724;49.324;-123.118;2023-09-19T06:06:38;23.70;60.10
12843;DHT22;35724;49.324;-123.118;2023-09-19T06:16:47;23.70;59.60
12843;DHT22;35724;49.324;-123.118;2023-09-19T06:26:54;23.70;59.50
12843;DHT22;35724;49.324;-123.118;2023-09-19T06:37:03;23.60;59.40
12843;DHT22;35724;49.324;-123.118;2023-09-19T06:47:10;23.40;59.40
12843;DHT22;35724;49.324;-123.118;2023-09-19T06:57:20;23.30;59.70
12843;DHT22;35724;49.324;-123.118;2023-09-19T07:07:27;23.30;60.00
12843;DHT22;35724;49.324;-123.118;2023-09-19T07:17:36;23.20;59.90
12843;DHT22;35724;49.324;-123.118;2023-09-19T07:27:43;23.20;59.70
12843;DHT22;35724;49.324;-123.118;2023-09-19T07:37:53;23.20;59.70
12843;DHT22;35724;49.324;-123.118;2023-09-19T07:48:01;23.10;59.70
12843;DHT22;35724;49.324;-123.118;2023-09-19T07:58:12;23.10;59.90
12843;DHT22;35724;49.324;-123.118;2023-09-19T08:08:21;23.10;60.00
12843;DHT22;35724;49.324;-123.118;2023-09-19T08:18:29;23.20;60.20
12843;DHT22;35724;49.324;-123.118;2023-09-19T08:28:37;23.10;60.20
12843;DHT22;35724;49.324;-123.118;2023-09-19T08:38:48;23.10;60.20
12843;DHT22;35724;49.324;-123.118;2023-09-19T08:49:02;23.10;60.30
12843;DHT22;35724;49.324;-123.118;2023-09-19T08:59:12;23.10;60.30
12843;DHT22;35724;49.324;-123.118;2023-09-19T09:09:19;23.10;60.50
12843;DHT22;35724;49.324;-123.118;2023-09-19T09:19:30;23.10;60.50
12843;DHT22;35724;49.324;-123.118;2023-09-19T09:29:42;23.10;60.50
12843;DHT22;35724;49.324;-123.118;2023-09-19T09:39:55;23.10;60.40
12843;DHT22;35724;49.324;-123.118;2023-09-19T09:50:03;23.10;60.40
12843;DHT22;35724;49.324;-123.118;2023-09-19T10:00:23;23.10;60.60
12843;DHT22;35724;49.324;-123.118;2023-09-19T10:10:37;23.10;60.50
12843;DHT22;35724;49.324;-123.118;2023-09-19T10:21:00;23.10;60.40
12843;DHT22;35724;49.324;-123.118;2023-09-19T10:31:09;23.10;60.20
12843;DHT22;35724;49.324;-123.118;2023-09-19T10:41:22;23.10;60.70
12843;DHT22;35724;49.324;-123.118;2023-09-19T10:51:31;23.10;60.10
12843;DHT22;35724;49.324;-123.118;2023-09-19T11:01:50;23.10;60.00
12843;DHT22;35724;49.324;-123.118;2023-09-19T11:12:00;23.10;59.90
12843;DHT22;35724;49.324;-123.118;2023-09-19T11:22:12;23.10;59.80
12843;DHT22;35724;49.324;-123.118;2023-09-19T11:43:32;23.10;59.80
12843;DHT22;35724;49.324;-123.118;2023-09-19T11:53:46;23.10;59.80
12843;DHT22;35724;49.324;-123.118;2023-09-19T12:03:58;23.10;59.90
12843;DHT22;35724;49.324;-123.118;2023-09-19T12:14:06;23.10;60.00
12843;DHT22;35724;49.324;-123.118;2023-09-19T12:24:15;23.10;60.00
12843;DHT22;35724;49.324;-123.118;2023-09-19T12:34:25;23.10;60.10
12843;DHT22;35724;49.324;-123.118;2023-09-19T12:44:36;23.10;60.30
12843;DHT22;35724;49.324;-123.118;2023-09-19T12:54:44;23.00;60.40
12843;DHT22;35724;49.324;-123.118;2023-09-19T13:04:56;23.00;60.50
12843;DHT22;35724;49.324;-123.118;2023-09-19T13:15:12;23.00;60.60
12843;DHT22;35724;49.324;-123.118;2023-09-19T13:25:23;23.00;60.90
12843;DHT22;35724;49.324;-123.118;2023-09-19T13:35:30;23.00;60.90
12843;DHT22;35724;49.324;-123.118;2023-09-19T13:45:40;22.90;60.80
12843;DHT22;35724;49.324;-123.118;2023-09-19T13:55:48;23.00;61.10
12843;DHT22;35724;49.324;-123.118;2023-09-19T14:05:56;23.10;61.30
12843;DHT22;35724;49.324;-123.118;2023-09-19T14:16:04;23.20;61.10
12843;DHT22;35724;49.324;-123.118;2023-09-19T14:26:13;23.30;61.30
12843;DHT22;35724;49.324;-123.118;2023-09-19T14:36:20;23.40;61.30
12843;DHT22;35724;49.324;-123.118;2023-09-19T14:46:32;23.40;61.50
12843;DHT22;35724;49.324;-123.118;2023-09-19T14:56:39;23.50;64.60
12843;DHT22;35724;49.324;-123.118;2023-09-19T15:06:50;23.50;63.60
12843;DHT22;35724;49.324;-123.118;2023-09-19T15:16:59;23.40;68.90
12843;DHT22;35724;49.324;-123.118;2023-09-19T15:27:11;23.50;68.80
12843;DHT22;35724;49.324;-123.118;2023-09-19T15:37:18;23.40;68.10
12843;DHT22;35724;49.324;-123.118;2023-09-19T15:47:27;23.40;67.20
12843;DHT22;35724;49.324;-123.118;2023-09-19T15:57:37;23.40;66.10
12843;DHT22;35724;49.324;-123.118;2023-09-19T16:07:45;23.40;64.40
12843;DHT22;35724;49.324;-123.118;2023-09-19T16:17:52;23.30;63.60
12843;DHT22;35724;49.324;-123.118;2023-09-19T16:28:01;23.30;62.00
12843;DHT22;35724;49.324;-123.118;2023-09-19T16:38:08;23.30;61.80
12843;DHT22;35724;49.324;-123.118;2023-09-19T16:48:18;23.40;61.50
12843;DHT22;35724;49.324;-123.118;2023-09-19T16:58:25;23.40;61.40
12843;DHT22;35724;49.324;-123.118;2023-09-19T17:08:34;23.40;61.40
12843;DHT22;35724;49.324;-123.118;2023-09-19T17:18:41;23.50;61.60
12843;DHT22;35724;49.324;-123.118;2023-09-19T17:28:50;23.70;61.30
12843;DHT22;35724;49.324;-123.118;2023-09-19T17:38:58;23.70;61.30
12843;DHT22;35724;49.324;-123.118;2023-09-19T17:49:07;23.90;61.10
12843;DHT22;35724;49.324;-123.118;2023-09-19T17:59:17;24.00;60.70
12843;DHT22;35724;49.324;-123.118;2023-09-19T18:09:25;24.00;60.10
12843;DHT22;35724;49.324;-123.118;2023-09-19T18:19:32;24.00;59.40
12843;DHT22;35724;49.324;-123.118;2023-09-19T18:29:41;24.10;59.10
12843;DHT22;35724;49.324;-123.118;2023-09-19T18:39:49;24.10;58.70
12843;DHT22;35724;49.324;-123.118;2023-09-19T18:49:58;24.00;58.50
12843;DHT22;35724;49.324;-123.118;2023-09-19T19:00:07;24.00;58.30
12843;DHT22;35724;49.324;-123.118;2023-09-19T19:10:17;24.00;58.30
12843;DHT22;35724;49.324;-123.118;2023-09-19T19:20:24;24.10;58.10
12843;DHT22;35724;49.324;-123.118;2023-09-19T19:30:33;24.10;57.90
12843;DHT22;35724;49.324;-123.118;2023-09-19T19:40:41;24.10;57.70
12843;DHT22;35724;49.324;-123.118;2023-09-19T19:50:51;24.00;57.70
12843;DHT22;35724;49.324;-123.118;2023-09-19T20:00:59;24.00;57.60
12843;DHT22;35724;49.324;-123.118;2023-09-19T20:11:08;24.10;57.20
12843;DHT22;35724;49.324;-123.118;2023-09-19T20:21:16;24.20;57.30
12843;DHT22;35724;49.324;-123.118;2023-09-19T20:31:25;24.20;57.40
12843;DHT22;35724;49.324;-123.118;2023-09-19T20:41:32;24.20;57.60
12843;DHT22;35724;49.324;-123.118;2023-09-19T20:51:41;24.20;58.20
12843;DHT22;35724;49.324;-123.118;2023-09-19T21:01:48;24.30;60.40
12843;DHT22;35724;49.324;-123.118;2023-09-19T21:11:57;24.30;59.60
12843;DHT22;35724;49.324;-123.118;2023-09-19T21:22:06;24.20;58.50
12843;DHT22;35724;49.324;-123.118;2023-09-19T21:32:14;24.20;58.10
12843;DHT22;35724;49.324;-123.118;2023-09-19T21:42:22;24.00;57.40
12843;DHT22;35724;49.324;-123.118;2023-09-19T21:52:32;24.00;56.90
12843;DHT22;35724;49.324;-123.118;2023-09-19T22:02:39;23.80;56.20
12843;DHT22;35724;49.324;-123.118;2023-09-19T22:12:48;23.80;56.60
12843;DHT22;35724;49.324;-123.118;2023-09-19T22:22:56;23.80;57.10
12843;DHT22;35724;49.324;-123.118;2023-09-19T22:33:05;23.60;57.50
12843;DHT22;35724;49.324;-123.118;2023-09-19T22:43:15;23.50;57.70
12843;DHT22;35724;49.324;-123.118;2023-09-19T22:53:25;23.40;58.90
12843;DHT22;35724;49.324;-123.118;2023-09-19T23:03:32;23.40;59.60
12843;DHT22;35724;49.324;-123.118;2023-09-19T23:13:41;23.40;60.70
12843;DHT22;35724;49.324;-123.118;2023-09-19T23:23:49;23.40;61.70
12843;DHT22;35724;49.324;-123.118;2023-09-19T23:33:59;23.40;62.10
12843;DHT22;35724;49.324;-123.118;2023-09-19T23:44:08;23.30;63.00
12843;DHT22;35724;49.324;-123.118;2023-09-19T23:54:19;23.40;64.20
